TimeEDT,TemperatureF,Dew PointF,Humidity,Sea Level PressureIn,VisibilityMPH,Wind Direction,Wind SpeedMPH,Gust SpeedMPH,PrecipitationIn,Events,Conditions,WindDirDegrees,DateUTC
12:15 AM,41.7,34.7,76,29.97,10.0,WSW,4.6,-,N/A,,Clear,240,2012-09-19 04:15:00
12:34 AM,41.0,34.9,79,29.98,10.0,WSW,5.8,-,N/A,,Clear,240,2012-09-19 04:34:00
12:55 AM,41.0,35.4,81,29.98,10.0,WSW,3.5,-,N/A,,Clear,250,2012-09-19 04:55:00
1:15 AM,40.3,34.7,80,29.99,10.0,WSW,5.8,-,N/A,,Clear,250,2012-09-19 05:15:00
1:55 AM,41.0,35.8,82,29.99,10.0,WSW,5.8,-,N/A,,Mostly Cloudy,250,2012-09-19 05:55:00
2:15 AM,41.7,36.1,81,30.00,10.0,West,3.5,-,N/A,,Mostly Cloudy,260,2012-09-19 06:15:00
2:35 AM,41.9,36.0,79,30.00,10.0,WSW,3.5,-,N/A,,Overcast,250,2012-09-19 06:35:00
2:55 AM,41.7,35.6,79,30.00,10.0,WSW,3.5,-,N/A,,Mostly Cloudy,250,2012-09-19 06:55:00
3:15 AM,41.0,35.1,79,30.00,10.0,SW,4.6,-,N/A,,Scattered Clouds,220,2012-09-19 07:15:00
3:35 AM,40.6,35.2,81,30.01,10.0,Calm,Calm,-,N/A,,Scattered Clouds,0,2012-09-19 07:35:00
3:55 AM,41.7,36.0,80,30.01,10.0,SW,3.5,-,N/A,,Overcast,230,2012-09-19 07:55:00
4:14 AM,42.3,36.5,80,30.02,10.0,Calm,Calm,-,N/A,,Overcast,0,2012-09-19 08:14:00
4:35 AM,42.4,36.5,79,30.02,10.0,Calm,Calm,-,N/A,,Overcast,0,2012-09-19 08:35:00
4:55 AM,42.1,36.5,81,30.03,10.0,WSW,3.5,-,N/A,,Overcast,240,2012-09-19 08:55:00
5:14 AM,41.9,36.0,79,30.03,10.0,WSW,3.5,-,N/A,,Mostly Cloudy,240,2012-09-19 09:14:00
5:55 AM,41.4,36.0,81,30.03,10.0,WSW,3.5,-,N/A,,Clear,240,2012-09-19 09:55:00
6:14 AM,41.0,35.8,82,30.04,10.0,Calm,Calm,-,N/A,,Clear,0,2012-09-19 10:14:00
6:35 AM,41.4,36.1,82,30.04,10.0,WSW,3.5,-,N/A,,Clear,240,2012-09-19 10:35:00
6:55 AM,40.1,35.6,84,30.05,10.0,SW,3.5,-,N/A,,Clear,230,2012-09-19 10:55:00
7:14 AM,40.3,35.8,84,30.06,10.0,WSW,3.5,-,N/A,,Clear,240,2012-09-19 11:14:00
7:35 AM,40.1,35.8,85,30.07,10.0,SW,3.5,-,N/A,,Clear,230,2012-09-19 11:35:00
7:55 AM,40.8,36.5,85,30.07,10.0,WSW,3.5,-,N/A,,Clear,240,2012-09-19 11:55:00
8:15 AM,42.8,38.1,84,30.08,10.0,WSW,3.5,-,N/A,,Clear,240,2012-09-19 12:15:00
8:35 AM,44.8,39.0,80,30.08,10.0,WSW,4.6,-,N/A,,Clear,240,2012-09-19 12:35:00
8:55 AM,46.2,39.6,78,30.08,10.0,WSW,4.6,-,N/A,,Clear,240,2012-09-19 12:55:00
9:15 AM,48.0,39.9,74,30.08,10.0,SW,3.5,-,N/A,,Clear,220,2012-09-19 13:15:00
9:35 AM,50.4,39.6,66,30.09,10.0,SW,3.5,-,N/A,,Clear,230,2012-09-19 13:35:00
9:55 AM,52.9,38.1,57,30.09,10.0,SW,4.6,-,N/A,,Clear,220,2012-09-19 13:55:00
10:15 AM,54.9,35.4,48,30.09,10.0,WSW,4.6,-,N/A,,Clear,240,2012-09-19 14:15:00
10:54 AM,57.2,31.8,38,30.10,10.0,WSW,8.1,-,N/A,,Clear,250,2012-09-19 14:54:00
11:35 AM,59.0,30.7,34,30.10,10.0,WSW,11.5,-,N/A,,Clear,240,2012-09-19 15:35:00
11:54 AM,59.2,30.4,34,30.09,10.0,WSW,8.1,-,N/A,,Clear,250,2012-09-19 15:54:00
12:15 PM,60.6,30.0,31,30.09,10.0,WSW,12.7,16.1,N/A,,Clear,250,2012-09-19 16:15:00
12:35 PM,60.6,29.1,30,30.09,10.0,WSW,10.4,-,N/A,,Clear,250,2012-09-19 16:35:00
12:55 PM,61.9,27.7,27,30.08,10.0,SW,8.1,16.1,N/A,,Clear,230,2012-09-19 16:55:00
1:15 PM,62.1,29.3,29,30.08,10.0,SSW,11.5,18.4,N/A,,Clear,200,2012-09-19 17:15:00
1:35 PM,61.9,28.2,28,30.07,10.0,SW,11.5,16.1,N/A,,Clear,220,2012-09-19 17:35:00
1:55 PM,63.3,26.4,25,30.07,10.0,SSW,9.2,16.1,N/A,,Clear,210,2012-09-19 17:55:00
2:15 PM,63.9,28.0,26,30.06,10.0,SSW,12.7,17.3,N/A,,Clear,210,2012-09-19 18:15:00
2:34 PM,64.2,27.9,25,30.06,10.0,SW,11.5,16.1,N/A,,Clear,230,2012-09-19 18:34:00
2:55 PM,64.6,28.2,25,30.05,10.0,South,10.4,18.4,N/A,,Clear,170,2012-09-19 18:55:00
3:15 PM,64.4,28.2,26,30.04,10.0,SSW,11.5,-,N/A,,Clear,210,2012-09-19 19:15:00
3:35 PM,65.3,28.9,26,30.04,10.0,SW,12.7,19.6,N/A,,Clear,230,2012-09-19 19:35:00
3:55 PM,64.8,28.4,25,30.03,10.0,South,13.8,18.4,N/A,,Clear,190,2012-09-19 19:55:00
4:15 PM,65.5,29.5,26,30.02,10.0,South,15.0,20.7,N/A,,Clear,190,2012-09-19 20:15:00
4:35 PM,66.0,29.8,26,30.02,10.0,South,12.7,-,N/A,,Clear,180,2012-09-19 20:35:00
4:55 PM,65.8,28.6,25,30.01,10.0,SSW,11.5,19.6,N/A,,Clear,200,2012-09-19 20:55:00
5:15 PM,66.2,28.4,24,30.01,10.0,South,12.7,19.6,N/A,,Clear,180,2012-09-19 21:15:00
5:35 PM,66.2,29.5,25,30.00,10.0,South,10.4,19.6,N/A,,Clear,180,2012-09-19 21:35:00
5:55 PM,65.7,28.4,25,30.00,10.0,South,10.4,18.4,N/A,,Clear,190,2012-09-19 21:55:00
6:14 PM,64.2,27.3,25,29.99,10.0,South,12.7,19.6,N/A,,Clear,170,2012-09-19 22:14:00
6:35 PM,64.4,28.2,26,29.98,10.0,South,11.5,20.7,N/A,,Mostly Cloudy,180,2012-09-19 22:35:00
6:55 PM,63.7,28.6,27,29.97,10.0,South,13.8,19.6,N/A,,Mostly Cloudy,180,2012-09-19 22:55:00
7:14 PM,63.5,28.4,27,29.97,10.0,South,11.5,18.4,N/A,,Mostly Cloudy,170,2012-09-19 23:14:00
7:35 PM,62.8,28.6,27,29.98,10.0,South,10.4,-,N/A,,Mostly Cloudy,170,2012-09-19 23:35:00
7:55 PM,62.1,29.1,29,29.98,10.0,South,12.7,16.1,N/A,,Scattered Clouds,170,2012-09-19 23:55:00
8:14 PM,61.3,29.8,30,29.98,10.0,South,11.5,-,N/A,,Clear,170,2012-09-20 00:14:00
8:35 PM,61.2,30.6,32,29.98,10.0,South,10.4,-,N/A,,Scattered Clouds,170,2012-09-20 00:35:00
9:15 PM,60.3,31.1,33,29.97,10.0,South,11.5,17.3,N/A,,Scattered Clouds,170,2012-09-20 01:15:00
9:35 PM,59.9,31.3,34,29.96,10.0,SSE,12.7,18.4,N/A,,Scattered Clouds,160,2012-09-20 01:35:00
9:54 PM,59.9,31.5,34,29.96,10.0,South,9.2,16.1,N/A,,Clear,170,2012-09-20 01:54:00
10:15 PM,59.2,31.5,35,29.97,10.0,South,11.5,17.3,N/A,,Clear,170,2012-09-20 02:15:00
10:34 PM,59.0,31.6,36,29.96,10.0,South,13.8,18.4,N/A,,Clear,170,2012-09-20 02:34:00
10:55 PM,58.5,32.0,37,29.96,10.0,South,11.5,-,N/A,,Clear,170,2012-09-20 02:55:00
11:15 PM,58.6,32.0,37,29.95,10.0,South,15.0,-,N/A,,Clear,170,2012-09-20 03:15:00
11:34 PM,58.3,32.0,37,29.95,10.0,South,15.0,21.9,N/A,,Clear,170,2012-09-20 03:34:00
11:55 PM,57.7,32.0,38,29.95,10.0,South,11.5,18.4,N/A,,Clear,180,2012-09-20 03:55:00